sensor_id;sensor_type;location;lat;lon;timestamp;pressure;altitude;pressure_sealevel;temperature;humidity
68226;BME280;55045;49.410;11.030;2023-02-12T00:00:09;100040.84;;;2.47;100.00
68226;BME280;55045;49.410;11.030;2023-02-12T00:03:18;100043.22;;;2.35;100.00
68226;BME280;55045;49.410;11.030;2023-02-12T00:06:22;100049.28;;;2.42;100.00
68226;BME280;55045;49.410;11.030;2023-02-12T00:09:27;100039.97;;;2.45;100.00
68226;BME280;55045;49.410;11.030;2023-02-12T00:12:30;100039.03;;;2.42;100.00
68226;BME280;55045;49.410;11.030;2023-02-12T00:15:33;100038.03;;;2.32;100.00
68226;BME280;55045;49.410;11.030;2023-02-12T00:18:40;100040.66;;;2.35;100.00
68226;BME280;55045;49.410;11.030;2023-02-12T00:21:44;100031.50;;;2.51;100.00
68226;BME280;55045;49.410;11.030;2023-02-12T00:24:47;100038.56;;;2.67;100.00
68226;BME280;55045;49.410;11.030;2023-02-12T00:27:51;100040.19;;;2.60;100.00
68226;BME280;55045;49.410;11.030;2023-02-12T00:30:54;100048.41;;;2.41;100.00
68226;BME280;55045;49.410;11.030;2023-02-12T00:33:58;100042.56;;;2.48;100.00
68226;BME280;55045;49.410;11.030;2023-02-12T00:37:03;100040.69;;;2.38;100.00
68226;BME280;55045;49.410;11.030;2023-02-12T00:40:07;100045.78;;;2.35;100.00
68226;BME280;55045;49.410;11.030;2023-02-12T00:43:12;100035.63;;;2.41;100.00
68226;BME280;55045;49.410;11.030;2023-02-12T00:46:15;100051.56;;;2.81;100.00
68226;BME280;55045;49.410;11.030;2023-02-12T00:49:19;100044.25;;;2.46;100.00
68226;BME280;55045;49.410;11.030;2023-02-12T00:52:23;100048.41;;;2.41;100.00
68226;BME280;55045;49.410;11.030;2023-02-12T00:55:26;100046.88;;;2.52;100.00
68226;BME280;55045;49.410;11.030;2023-02-12T00:58:30;100051.16;;;2.52;100.00
68226;BME280;55045;49.410;11.030;2023-02-12T01:01:34;100043.00;;;2.77;100.00
68226;BME280;55045;49.410;11.030;2023-02-12T01:04:38;100056.47;;;2.66;100.00
68226;BME280;55045;49.410;11.030;2023-02-12T01:07:42;100057.53;;;2.80;100.00
68226;BME280;55045;49.410;11.030;2023-02-12T01:10:53;100063.97;;;2.53;100.00
68226;BME280;55045;49.410;11.030;2023-02-12T01:13:57;100057.94;;;2.50;100.00
68226;BME280;55045;49.410;11.030;2023-02-12T01:17:01;100048.41;;;2.41;100.00
68226;BME280;55045;49.410;11.030;2023-02-12T01:20:06;100040.88;;;2.50;100.00
68226;BME280;55045;49.410;11.030;2023-02-12T01:23:11;100040.13;;;2.56;100.00
68226;BME280;55045;49.410;11.030;2023-02-12T01:26:16;100039.38;;;2.65;100.00
68226;BME280;55045;49.410;11.030;2023-02-12T01:29:20;100045.34;;;2.64;100.00
68226;BME280;55045;49.410;11.030;2023-02-12T01:32:23;100044.63;;;2.75;100.00
68226;BME280;55045;49.410;11.030;2023-02-12T01:35:26;100043.75;;;2.73;100.00
68226;BME280;55045;49.410;11.030;2023-02-12T01:38:31;100049.75;;;2.75;100.00
68226;BME280;55045;49.410;11.030;2023-02-12T01:41:39;100041.28;;;2.79;100.00
68226;BME280;55045;49.410;11.030;2023-02-12T01:44:43;100038.91;;;2.93;100.00
68226;BME280;55045;49.410;11.030;2023-02-12T01:47:47;100033.38;;;2.64;100.00
68226;BME280;55045;49.410;11.030;2023-02-12T01:50:52;100033.41;;;2.66;100.00
68226;BME280;55045;49.410;11.030;2023-02-12T01:54:00;100023.41;;;2.85;100.00
68226;BME280;55045;49.410;11.030;2023-02-12T01:57:05;100031.06;;;2.81;100.00
68226;BME280;55045;49.410;11.030;2023-02-12T02:00:14;100044.63;;;2.74;100.00
68226;BME280;55045;49.410;11.030;2023-02-12T02:03:17;100044.63;;;2.74;100.00
68226;BME280;55045;49.410;11.030;2023-02-12T02:06:24;100044.91;;;2.94;100.00
68226;BME280;55045;49.410;11.030;2023-02-12T02:09:34;100046.31;;;2.72;100.00
68226;BME280;55045;49.410;11.030;2023-02-12T02:12:38;100045.47;;;2.74;100.00
68226;BME280;55045;49.410;11.030;2023-02-12T02:16:04;100045.91;;;3.06;100.00
68226;BME280;55045;49.410;11.030;2023-02-12T02:19:19;100038.72;;;2.78;100.00
68226;BME280;55045;49.410;11.030;2023-02-12T02:22:31;100032.91;;;2.91;100.00
68226;BME280;55045;49.410;11.030;2023-02-12T02:26:00;100041.59;;;3.01;100.00
68226;BME280;55045;49.410;11.030;2023-02-12T02:29:20;100009.44;;;2.62;100.00
68226;BME280;55045;49.410;11.030;2023-02-12T02:32:31;100041.22;;;2.75;100.00
68226;BME280;55045;49.410;11.030;2023-02-12T02:35:41;99923.34;;;2.10;100.00
68226;BME280;55045;49.410;11.030;2023-02-12T02:38:49;100047.13;;;2.69;100.00
68226;BME280;55045;49.410;11.030;2023-02-12T02:41:57;100041.22;;;2.75;100.00
68226;BME280;55045;49.410;11.030;2023-02-12T02:45:03;100043.69;;;2.67;100.00
68226;BME280;55045;49.410;11.030;2023-02-12T02:48:13;100043.59;;;2.59;100.00
68226;BME280;55045;49.410;11.030;2023-02-12T02:51:21;100046.97;;;2.58;100.00
68226;BME280;55045;49.410;11.030;2023-02-12T02:54:26;100055.72;;;2.73;100.00
68226;BME280;55045;49.410;11.030;2023-02-12T02:57:36;100061.50;;;2.59;100.00
68226;BME280;55045;49.410;11.030;2023-02-12T03:00:43;100054.66;;;2.58;100.00
68226;BME280;55045;49.410;11.030;2023-02-12T03:03:52;100055.50;;;2.57;100.00
68226;BME280;55045;49.410;11.030;2023-02-12T03:07:02;100049.72;;;2.71;100.00
68226;BME280;55045;49.410;11.030;2023-02-12T03:10:09;100048.00;;;2.70;100.00
68226;BME280;55045;49.410;11.030;2023-02-12T03:13:18;100059.69;;;2.52;100.00
68226;BME280;55045;49.410;11.030;2023-02-12T03:16:25;100068.34;;;2.59;100.00
68226;BME280;55045;49.410;11.030;2023-02-12T03:19:34;100068.25;;;2.54;100.00
68226;BME280;55045;49.410;11.030;2023-02-12T03:22:43;100063.09;;;2.53;100.00
68226;BME280;55045;49.410;11.030;2023-02-12T03:25:52;100070.81;;;2.54;100.00
68226;BME280;55045;49.410;11.030;2023-02-12T03:28:58;100066.47;;;2.47;100.00
68226;BME280;55045;49.410;11.030;2023-02-12T03:32:13;100071.63;;;2.50;100.00
68226;BME280;55045;49.410;11.030;2023-02-12T03:35:24;100072.88;;;2.77;100.00
68226;BME280;55045;49.410;11.030;2023-02-12T03:38:35;100078.81;;;2.76;100.00
68226;BME280;55045;49.410;11.030;2023-02-12T03:41:42;100085.31;;;2.54;100.00
68226;BME280;55045;49.410;11.030;2023-02-12T03:44:51;100075.88;;;2.50;100.00
68226;BME280;55045;49.410;11.030;2023-02-12T03:47:57;100087.09;;;2.56;100.00
68226;BME280;55045;49.410;11.030;2023-02-12T03:51:07;100084.53;;;2.58;100.00
68226;BME280;55045;49.410;11.030;2023-02-12T03:54:19;100072.34;;;2.43;100.00
68226;BME280;55045;49.410;11.030;2023-02-12T03:57:25;100087.13;;;2.59;100.00
68226;BME280;55045;49.410;11.030;2023-02-12T04:00:31;100083.53;;;2.47;100.00
68226;BME280;55045;49.410;11.030;2023-02-12T04:03:35;100090.25;;;2.42;100.00
68226;BME280;55045;49.410;11.030;2023-02-12T04:06:40;100086.81;;;2.40;100.00
68226;BME280;55045;49.410;11.030;2023-02-12T04:09:43;100087.66;;;2.39;100.00
68226;BME280;55045;49.410;11.030;2023-02-12T04:12:52;100089.19;;;2.29;100.00
68226;BME280;55045;49.410;11.030;2023-02-12T04:16:05;100083.09;;;2.21;100.00
68226;BME280;55045;49.410;11.030;2023-02-12T04:19:18;100089.25;;;2.32;100.00
68226;BME280;55045;49.410;11.030;2023-02-12T04:22:34;100091.75;;;2.29;100.00
68226;BME280;55045;49.410;11.030;2023-02-12T04:25:51;100092.59;;;2.26;100.00
68226;BME280;55045;49.410;11.030;2023-02-12T04:29:04;100088.19;;;2.19;100.00
68226;BME280;55045;49.410;11.030;2023-02-12T04:34:25;100096.03;;;2.30;100.00
68226;BME280;55045;49.410;11.030;2023-02-12T04:37:36;100099.94;;;2.08;100.00
68226;BME280;55045;49.410;11.030;2023-02-12T04:40:40;100106.94;;;2.17;100.00
68226;BME280;55045;49.410;11.030;2023-02-12T04:43:44;100104.44;;;2.23;100.00
68226;BME280;55045;49.410;11.030;2023-02-12T04:46:48;100096.94;;;2.88;100.00
68226;BME280;55045;49.410;11.030;2023-02-12T04:49:53;100104.25;;;2.64;100.00
68226;BME280;55045;49.410;11.030;2023-02-12T04:52:57;100106.09;;;2.71;100.00
68226;BME280;55045;49.410;11.030;2023-02-12T04:56:00;100111.78;;;2.54;100.00
68226;BME280;55045;49.410;11.030;2023-02-12T04:59:03;100109.13;;;2.45;100.00
68226;BME280;55045;49.410;11.030;2023-02-12T05:02:07;100115.72;;;2.34;100.00
68226;BME280;55045;49.410;11.030;2023-02-12T05:05:12;100109.47;;;2.17;100.00
68226;BME280;55045;49.410;11.030;2023-02-12T05:08:15;100110.50;;;2.26;100.00
68226;BME280;55045;49.410;11.030;2023-02-12T05:11:18;100115.16;;;2.50;100.00
68226;BME280;55045;49.410;11.030;2023-02-12T05:14:23;100122.34;;;2.21;100.00
68226;BME280;55045;49.410;11.030;2023-02-12T05:17:26;100112.63;;;2.03;100.00
68226;BME280;55045;49.410;11.030;2023-02-12T05:20:30;100115.03;;;2.43;100.00
68226;BME280;55045;49.410;11.030;2023-02-12T05:23:36;100115.72;;;2.34;100.00
68226;BME280;55045;49.410;11.030;2023-02-12T05:26:39;100115.81;;;2.39;100.00
68226;BME280;55045;49.410;11.030;2023-02-12T05:29:42;100118.44;;;2.43;100.00
68226;BME280;55045;49.410;11.030;2023-02-12T05:32:46;100120.28;;;2.50;100.00
68226;BME280;55045;49.410;11.030;2023-02-12T05:35:50;100123.69;;;2.49;100.00
68226;BME280;55045;49.410;11.030;2023-02-12T05:38:57;100120.00;;;2.88;100.00
68226;BME280;55045;49.410;11.030;2023-02-12T05:42:00;100130.53;;;2.50;100.00
68226;BME280;55045;49.410;11.030;2023-02-12T05:45:05;100125.78;;;2.22;100.00
68226;BME280;55045;49.410;11.030;2023-02-12T05:48:08;100130.88;;;2.22;100.00
68226;BME280;55045;49.410;11.030;2023-02-12T05:51:15;100137.44;;;2.05;100.00
68226;BME280;55045;49.410;11.030;2023-02-12T05:54:18;100143.78;;;2.25;100.00
68226;BME280;55045;49.410;11.030;2023-02-12T05:57:22;100142.75;;;2.17;100.00
68226;BME280;55045;49.410;11.030;2023-02-12T06:00:25;100144.69;;;2.30;100.00
68226;BME280;55045;49.410;11.030;2023-02-12T06:03:28;100157.44;;;2.27;100.00
68226;BME280;55045;49.410;11.030;2023-02-12T06:06:33;100150.59;;;2.26;100.00
68226;BME280;55045;49.410;11.030;2023-02-12T06:09:36;100154.31;;;2.45;100.00
68226;BME280;55045;49.410;11.030;2023-02-12T06:12:39;100149.47;;;2.12;100.00
68226;BME280;55045;49.410;11.030;2023-02-12T06:15:43;100148.56;;;2.08;100.00
68226;BME280;55045;49.410;11.030;2023-02-12T06:18:46;100155.44;;;2.11;100.00
68226;BME280;55045;49.410;11.030;2023-02-12T06:21:51;100154.69;;;2.16;100.00
68226;BME280;55045;49.410;11.030;2023-02-12T06:24:54;100152.72;;;2.01;100.00
68226;BME280;55045;49.410;11.030;2023-02-12T06:27:57;100123.41;;;1.84;100.00
68226;BME280;55045;49.410;11.030;2023-02-12T06:31:00;100143.31;;;2.02;100.00
68226;BME280;55045;49.410;11.030;2023-02-12T06:34:06;100156.13;;;2.02;100.00
68226;BME280;55045;49.410;11.030;2023-02-12T06:37:11;100157.78;;;1.98;100.00
68226;BME280;55045;49.410;11.030;2023-02-12T06:40:14;100159.34;;;1.92;100.00
68226;BME280;55045;49.410;11.030;2023-02-12T06:43:18;100161.06;;;1.93;100.00
68226;BME280;55045;49.410;11.030;2023-02-12T06:46:21;100172.28;;;1.99;100.00
68226;BME280;55045;49.410;11.030;2023-02-12T06:49:24;100174.84;;;1.99;100.00
68226;BME280;55045;49.410;11.030;2023-02-12T06:52:29;100184.94;;;1.92;100.00
68226;BME280;55045;49.410;11.030;2023-02-12T06:55:33;100195.31;;;1.99;100.00
68226;BME280;55045;49.410;11.030;2023-02-12T06:58:37;100185.09;;;1.99;100.00
68226;BME280;55045;49.410;11.030;2023-02-12T07:01:40;100180.63;;;1.89;100.00
68226;BME280;55045;49.410;11.030;2023-02-12T07:04:43;100189.41;;;2.03;100.00
68226;BME280;55045;49.410;11.030;2023-02-12T07:07:48;100189.31;;;1.97;100.00
68226;BME280;55045;49.410;11.030;2023-02-12T07:10:51;100197.84;;;1.96;100.00
68226;BME280;55045;49.410;11.030;2023-02-12T07:13:56;100203.00;;;1.99;100.00
68226;BME280;55045;49.410;11.030;2023-02-12T07:16:59;100196.56;;;2.20;100.00
68226;BME280;55045;49.410;11.030;2023-02-12T07:20:05;100203.16;;;2.07;100.00
68226;BME280;55045;49.410;11.030;2023-02-12T07:23:11;100197.31;;;2.14;100.00
68226;BME280;55045;49.410;11.030;2023-02-12T07:26:15;100210.09;;;2.59;100.00
68226;BME280;55045;49.410;11.030;2023-02-12T07:29:18;100206.34;;;2.42;100.00
68226;BME280;55045;49.410;11.030;2023-02-12T07:32:21;100200.22;;;2.34;100.00
68226;BME280;55045;49.410;11.030;2023-02-12T07:35:24;100212.28;;;2.40;100.00
68226;BME280;55045;49.410;11.030;2023-02-12T07:38:29;100212.25;;;2.37;100.00
68226;BME280;55045;49.410;11.030;2023-02-12T07:41:34;100209.69;;;2.37;100.00
68226;BME280;55045;49.410;11.030;2023-02-12T07:44:37;100213.94;;;2.36;100.00
68226;BME280;55045;49.410;11.030;2023-02-12T07:47:40;100219.63;;;2.67;100.00
68226;BME280;55045;49.410;11.030;2023-02-12T07:50:44;100222.72;;;2.50;100.00
68226;BME280;55045;49.410;11.030;2023-02-12T07:53:49;100222.59;;;2.44;100.00
68226;BME280;55045;49.410;11.030;2023-02-12T07:56:53;100222.50;;;2.38;100.00
68226;BME280;55045;49.410;11.030;2023-02-12T07:59:56;100222.50;;;2.37;100.00
68226;BME280;55045;49.410;11.030;2023-02-12T08:02:59;100221.81;;;2.45;100.00
68226;BME280;55045;49.410;11.030;2023-02-12T08:06:06;100223.06;;;2.69;100.00
68226;BME280;55045;49.410;11.030;2023-02-12T08:09:12;100218.16;;;2.34;100.00
68226;BME280;55045;49.410;11.030;2023-02-12T08:12:16;100226.59;;;2.27;100.00
68226;BME280;55045;49.410;11.030;2023-02-12T08:15:19;100232.75;;;2.38;100.00
68226;BME280;55045;49.410;11.030;2023-02-12T08:18:22;100205.47;;;2.40;100.00
68226;BME280;55045;49.410;11.030;2023-02-12T08:21:27;100229.81;;;2.65;100.00
68226;BME280;55045;49.410;11.030;2023-02-12T08:24:31;100240.25;;;2.76;100.00
68226;BME280;55045;49.410;11.030;2023-02-12T08:27:35;100216.53;;;2.87;100.00
68226;BME280;55045;49.410;11.030;2023-02-12T08:30:38;100232.84;;;2.93;100.00
68226;BME280;55045;49.410;11.030;2023-02-12T08:33:43;100230.28;;;2.94;100.00
68226;BME280;55045;49.410;11.030;2023-02-12T08:36:47;100209.94;;;3.03;100.00
68226;BME280;55045;49.410;11.030;2023-02-12T08:39:52;100217.91;;;3.22;100.00
68226;BME280;55045;49.410;11.030;2023-02-12T08:42:55;100214.50;;;3.23;100.00
68226;BME280;55045;49.410;11.030;2023-02-12T08:46:03;100223.16;;;3.29;100.00
68226;BME280;55045;49.410;11.030;2023-02-12T08:49:08;100217.66;;;3.65;100.00
68226;BME280;55045;49.410;11.030;2023-02-12T08:52:13;100218.34;;;3.51;100.00
68226;BME280;55045;49.410;11.030;2023-02-12T08:55:17;100221.16;;;3.69;100.00
68226;BME280;55045;49.410;11.030;2023-02-12T08:58:24;100231.47;;;3.75;100.00
68226;BME280;55045;49.410;11.030;2023-02-12T09:01:29;100221.28;;;3.80;100.00
68226;BME280;55045;49.410;11.030;2023-02-12T09:04:34;100232.28;;;3.71;100.00
68226;BME280;55045;49.410;11.030;2023-02-12T09:07:38;100228.00;;;3.68;100.00
68226;BME280;55045;49.410;11.030;2023-02-12T09:10:43;100200.81;;;3.86;100.00
68226;BME280;55045;49.410;11.030;2023-02-12T09:13:47;100231.69;;;3.89;100.00
68226;BME280;55045;49.410;11.030;2023-02-12T09:16:50;100227.44;;;3.92;100.00
68226;BME280;55045;49.410;11.030;2023-02-12T09:19:54;100236.03;;;3.96;100.00
68226;BME280;55045;49.410;11.030;2023-02-12T09:22:58;100223.47;;;4.20;100.00
68226;BME280;55045;49.410;11.030;2023-02-12T09:26:04;100232.78;;;4.11;100.00
68226;BME280;55045;49.410;11.030;2023-02-12T09:29:08;100231.97;;;4.16;100.00
68226;BME280;55045;49.410;11.030;2023-02-12T09:32:11;100228.50;;;4.11;100.00
68226;BME280;55045;49.410;11.030;2023-02-12T09:35:15;100224.38;;;4.25;100.00
68226;BME280;55045;49.410;11.030;2023-02-12T09:38:19;100225.06;;;4.09;100.00
68226;BME280;55045;49.410;11.030;2023-02-12T09:45:02;100226.94;;;4.22;100.00
68226;BME280;55045;49.410;11.030;2023-02-12T09:48:17;100208.13;;;4.26;100.00
68226;BME280;55045;49.410;11.030;2023-02-12T09:51:28;100221.16;;;4.43;100.00
68226;BME280;55045;49.410;11.030;2023-02-12T09:54:36;100198.72;;;4.28;100.00
68226;BME280;55045;49.410;11.030;2023-02-12T09:57:41;100230.50;;;4.37;100.00
68226;BME280;55045;49.410;11.030;2023-02-12T10:00:45;100225.41;;;4.41;100.00
68226;BME280;55045;49.410;11.030;2023-02-12T10:03:50;100229.81;;;4.53;100.00
68226;BME280;55045;49.410;11.030;2023-02-12T10:07:01;100154.69;;;3.93;100.00
68226;BME280;55045;49.410;11.030;2023-02-12T10:10:20;100222.00;;;4.41;100.00
68226;BME280;55045;49.410;11.030;2023-02-12T10:13:35;100228.03;;;4.46;100.00
68226;BME280;55045;49.410;11.030;2023-02-12T10:16:51;100235.13;;;4.71;100.00
68226;BME280;55045;49.410;11.030;2023-02-12T10:20:26;100225.44;;;4.43;100.00
68226;BME280;55045;49.410;11.030;2023-02-12T10:27:30;100235.97;;;4.70;100.00
68226;BME280;55045;49.410;11.030;2023-02-12T10:34:21;100234.94;;;4.51;100.00
68226;BME280;55045;49.410;11.030;2023-02-12T10:37:31;100230.88;;;4.73;100.00
68226;BME280;55045;49.410;11.030;2023-02-12T10:40:42;100234.31;;;4.78;100.00
68226;BME280;55045;49.410;11.030;2023-02-12T10:43:46;100233.41;;;4.72;100.00
68226;BME280;55045;49.410;11.030;2023-02-12T10:46:49;100223.09;;;4.67;100.00
68226;BME280;55045;49.410;11.030;2023-02-12T10:49:55;100215.28;;;4.59;100.00
68226;BME280;55045;49.410;11.030;2023-02-12T10:53:01;100223.81;;;4.52;100.00
68226;BME280;55045;49.410;11.030;2023-02-12T10:56:13;100219.84;;;4.89;100.00
68226;BME280;55045;49.410;11.030;2023-02-12T10:59:21;100223.25;;;4.84;100.00
68226;BME280;55045;49.410;11.030;2023-02-12T11:02:27;100222.41;;;4.86;100.00
68226;BME280;55045;49.410;11.030;2023-02-12T11:05:34;100213.91;;;4.97;100.00
68226;BME280;55045;49.410;11.030;2023-02-12T11:08:37;100214.56;;;4.71;100.00
68226;BME280;55045;49.410;11.030;2023-02-12T11:11:44;100227.69;;;5.05;100.00
68226;BME280;55045;49.410;11.030;2023-02-12T11:14:51;100225.75;;;4.76;100.00
68226;BME280;55045;49.410;11.030;2023-02-12T11:17:57;100224.81;;;4.70;100.00
68226;BME280;55045;49.410;11.030;2023-02-12T11:21:04;100223.94;;;4.66;100.00
68226;BME280;55045;49.410;11.030;2023-02-12T11:24:26;100219.75;;;4.79;100.00
68226;BME280;55045;49.410;11.030;2023-02-12T11:27:31;100218.09;;;4.82;100.00
68226;BME280;55045;49.410;11.030;2023-02-12T11:30:35;100223.16;;;4.76;100.00
68226;BME280;55045;49.410;11.030;2023-02-12T11:33:38;100223.16;;;4.73;100.00
68226;BME280;55045;49.410;11.030;2023-02-12T11:36:44;100222.22;;;4.67;100.00
68226;BME280;55045;49.410;11.030;2023-02-12T11:39:49;100226.59;;;4.78;100.00
68226;BME280;55045;49.410;11.030;2023-02-12T11:42:54;100227.53;;;4.83;100.00
68226;BME280;55045;49.410;11.030;2023-02-12T11:45:59;100227.53;;;4.83;100.00
68226;BME280;55045;49.410;11.030;2023-02-12T11:49:04;100226.75;;;4.90;100.00
68226;BME280;55045;49.410;11.030;2023-02-12T11:52:18;100228.31;;;4.78;100.00
68226;BME280;55045;49.410;11.030;2023-02-12T11:55:25;100216.38;;;4.83;100.00
68226;BME280;55045;49.410;11.030;2023-02-12T11:58:29;100218.09;;;4.81;100.00
68226;BME280;55045;49.410;11.030;2023-02-12T12:01:34;100207.19;;;5.17;100.00
68226;BME280;55045;49.410;11.030;2023-02-12T12:04:43;100205.38;;;5.01;100.00
68226;BME280;55045;49.410;11.030;2023-02-12T12:07:55;100197.53;;;4.82;100.00
68226;BME280;55045;49.410;11.030;2023-02-12T12:11:05;100209.88;;;5.32;100.00
68226;BME280;55045;49.410;11.030;2023-02-12T12:14:16;100212.19;;;4.99;100.00
68226;BME280;55045;49.410;11.030;2023-02-12T12:17:27;100208.00;;;5.08;100.00
68226;BME280;55045;49.410;11.030;2023-02-12T12:20:59;100201.88;;;4.91;100.00
68226;BME280;55045;49.410;11.030;2023-02-12T12:24:10;100200.97;;;4.86;100.00
68226;BME280;55045;49.410;11.030;2023-02-12T12:27:20;100203.56;;;4.89;100.00
68226;BME280;55045;49.410;11.030;2023-02-12T12:30:58;100202.81;;;5.01;100.00
68226;BME280;55045;49.410;11.030;2023-02-12T12:34:07;100199.53;;;5.23;100.00
68226;BME280;55045;49.410;11.030;2023-02-12T12:37:25;100201.19;;;5.15;100.00
68226;BME280;55045;49.410;11.030;2023-02-12T12:40:43;100193.47;;;5.15;100.00
68226;BME280;55045;49.410;11.030;2023-02-12T12:43:54;100191.03;;;5.32;100.00
68226;BME280;55045;49.410;11.030;2023-02-12T12:47:17;100179.88;;;5.34;100.00
68226;BME280;55045;49.410;11.030;2023-02-12T12:50:40;100153.28;;;5.35;100.00
68226;BME280;55045;49.410;11.030;2023-02-12T12:53:56;100167.06;;;5.51;100.00
68226;BME280;55045;49.410;11.030;2023-02-12T12:57:11;100176.50;;;5.46;100.00
68226;BME280;55045;49.410;11.030;2023-02-12T13:00:32;100160.25;;;5.58;100.00
68226;BME280;55045;49.410;11.030;2023-02-12T13:03:58;100157.63;;;5.45;100.00
68226;BME280;55045;49.410;11.030;2023-02-12T13:07:12;100156.00;;;5.66;100.00
68226;BME280;55045;49.410;11.030;2023-02-12T13:10:28;100162.00;;;5.63;100.00
68226;BME280;55045;49.410;11.030;2023-02-12T13:13:38;100153.56;;;6.01;100.00
68226;BME280;55045;49.410;11.030;2023-02-12T13:16:46;100146.56;;;5.66;100.00
68226;BME280;55045;49.410;11.030;2023-02-12T13:19:58;100157.78;;;5.77;100.00
68226;BME280;55045;49.410;11.030;2023-02-12T13:23:14;100150.03;;;5.79;100.00
68226;BME280;55045;49.410;11.030;2023-02-12T13:26:23;100148.31;;;5.79;100.00
68226;BME280;55045;49.410;11.030;2023-02-12T13:29:34;100159.53;;;5.88;100.00
68226;BME280;55045;49.410;11.030;2023-02-12T13:32:42;100157.72;;;5.70;100.00
68226;BME280;55045;49.410;11.030;2023-02-12T13:35:50;100159.53;;;5.88;100.00
68226;BME280;55045;49.410;11.030;2023-02-12T13:38:57;100151.75;;;5.77;100.00
68226;BME280;55045;49.410;11.030;2023-02-12T13:42:14;100161.16;;;5.69;100.00
68226;BME280;55045;49.410;11.030;2023-02-12T13:45:26;100145.75;;;5.75;100.00
68226;BME280;55045;49.410;11.030;2023-02-12T13:48:40;100156.91;;;5.78;100.00
68226;BME280;55045;49.410;11.030;2023-02-12T13:51:52;100156.16;;;6.01;100.00
68226;BME280;55045;49.410;11.030;2023-02-12T13:55:10;100153.53;;;5.92;100.00
68226;BME280;55045;49.410;11.030;2023-02-12T13:58:38;100150.19;;;6.16;100.00
68226;BME280;55045;49.410;11.030;2023-02-12T14:01:43;100145.88;;;6.22;100.00
68226;BME280;55045;49.410;11.030;2023-02-12T14:04:54;100145.84;;;6.02;100.00
68226;BME280;55045;49.410;11.030;2023-02-12T14:08:03;100145.00;;;5.97;100.00
68226;BME280;55045;49.410;11.030;2023-02-12T14:11:08;100145.00;;;5.97;100.00
68226;BME280;55045;49.410;11.030;2023-02-12T14:14:24;100142.47;;;6.28;100.00
68226;BME280;55045;49.410;11.030;2023-02-12T14:18:02;100137.28;;;6.06;100.00
68226;BME280;55045;49.410;11.030;2023-02-12T14:21:39;100137.31;;;6.22;100.00
68226;BME280;55045;49.410;11.030;2023-02-12T14:24:49;100133.03;;;6.13;100.00
68226;BME280;55045;49.410;11.030;2023-02-12T14:27:53;100134.72;;;6.17;100.00
68226;BME280;55045;49.410;11.030;2023-02-12T14:31:31;100130.44;;;6.30;100.00
68226;BME280;55045;49.410;11.030;2023-02-12T14:34:38;100128.72;;;6.15;100.00
68226;BME280;55045;49.410;11.030;2023-02-12T14:37:41;100116.69;;;6.22;100.00
68226;BME280;55045;49.410;11.030;2023-02-12T14:40:45;100116.69;;;6.14;100.00
68226;BME280;55045;49.410;11.030;2023-02-12T14:43:48;100117.56;;;6.16;100.00
68226;BME280;55045;49.410;11.030;2023-02-12T14:47:08;100123.59;;;6.26;100.00
68226;BME280;55045;49.410;11.030;2023-02-12T14:50:20;100125.28;;;6.15;100.00
68226;BME280;55045;49.410;11.030;2023-02-12T14:53:28;100121.84;;;6.28;100.00
68226;BME280;55045;49.410;11.030;2023-02-12T14:56:45;100122.72;;;6.27;100.00
68226;BME280;55045;49.410;11.030;2023-02-12T14:59:51;100119.25;;;6.11;100.00
68226;BME280;55045;49.410;11.030;2023-02-12T15:03:01;100120.09;;;6.02;100.00
68226;BME280;55045;49.410;11.030;2023-02-12T15:06:13;100119.22;;;6.00;100.00
68226;BME280;55045;49.410;11.030;2023-02-12T15:09:20;100118.38;;;5.95;100.00
68226;BME280;55045;49.410;11.030;2023-02-12T15:12:31;100127.75;;;5.83;100.00
68226;BME280;55045;49.410;11.030;2023-02-12T15:15:39;100118.31;;;5.86;100.00
68226;BME280;55045;49.410;11.030;2023-02-12T15:18:52;100118.31;;;5.83;100.00
68226;BME280;55045;49.410;11.030;2023-02-12T15:21:58;100124.31;;;5.85;100.00
68226;BME280;55045;49.410;11.030;2023-02-12T15:25:15;100117.44;;;5.81;100.00
68226;BME280;55045;49.410;11.030;2023-02-12T15:28:21;100118.28;;;5.74;100.00
68226;BME280;55045;49.410;11.030;2023-02-12T15:31:27;100120.81;;;5.71;100.00
68226;BME280;55045;49.410;11.030;2023-02-12T15:34:33;100114.88;;;5.83;100.00
68226;BME280;55045;49.410;11.030;2023-02-12T15:37:41;100113.94;;;5.61;100.00
68226;BME280;55045;49.410;11.030;2023-02-12T15:40:53;100111.31;;;5.52;100.00
68226;BME280;55045;49.410;11.030;2023-02-12T15:43:57;100116.47;;;5.52;100.00
68226;BME280;55045;49.410;11.030;2023-02-12T15:47:08;100112.22;;;5.54;100.00
68226;BME280;55045;49.410;11.030;2023-02-12T15:50:13;100123.41;;;5.63;100.00
68226;BME280;55045;49.410;11.030;2023-02-12T15:53:18;100123.31;;;5.46;100.00
68226;BME280;55045;49.410;11.030;2023-02-12T15:56:23;100113.06;;;5.53;100.00
68226;BME280;55045;49.410;11.030;2023-02-12T15:59:27;100097.59;;;5.48;100.00
68226;BME280;55045;49.410;11.030;2023-02-12T16:02:33;100101.03;;;5.48;100.00
68226;BME280;55045;49.410;11.030;2023-02-12T16:05:36;100101.88;;;5.50;100.00
68226;BME280;55045;49.410;11.030;2023-02-12T16:08:43;100077.81;;;5.33;100.00
68226;BME280;55045;49.410;11.030;2023-02-12T16:11:47;100095.88;;;5.42;100.00
68226;BME280;55045;49.410;11.030;2023-02-12T16:14:52;100104.41;;;5.41;100.00
68226;BME280;55045;49.410;11.030;2023-02-12T16:17:56;100101.78;;;5.29;100.00
68226;BME280;55045;49.410;11.030;2023-02-12T16:21:02;100098.34;;;5.23;100.00